sensor_id;sensor_type;location;lat;lon;timestamp;pressure;altitude;pressure_sealevel;temperature;humidity
46756;BME280;32506;52.826;-1.192;2023-03-14T00:00:18;98094.50;;;9.27;59.27
46756;BME280;32506;52.826;-1.192;2023-03-14T00:02:44;98093.16;;;9.24;59.30
46756;BME280;32506;52.826;-1.192;2023-03-14T00:05:10;98099.81;;;9.22;59.09
46756;BME280;32506;52.826;-1.192;2023-03-14T00:07:37;98102.22;;;9.18;59.33
46756;BME280;32506;52.826;-1.192;2023-03-14T00:10:14;98108.06;;;9.15;59.33
46756;BME280;32506;52.826;-1.192;2023-03-14T00:12:41;98112.06;;;9.13;59.51
46756;BME280;32506;52.826;-1.192;2023-03-14T00:15:07;98114.22;;;9.11;59.25
46756;BME280;32506;52.826;-1.192;2023-03-14T00:17:34;98112.31;;;9.06;59.34
46756;BME280;32506;52.826;-1.192;2023-03-14T00:19:59;98127.78;;;9.04;59.69
46756;BME280;32506;52.826;-1.192;2023-03-14T00:22:32;98134.69;;;9.00;59.61
46756;BME280;32506;52.826;-1.192;2023-03-14T00:24:57;98142.13;;;8.98;59.45
46756;BME280;32506;52.826;-1.192;2023-03-14T00:27:23;98137.34;;;8.95;59.38
46756;BME280;32506;52.826;-1.192;2023-03-14T00:29:48;98147.44;;;8.93;59.50
46756;BME280;32506;52.826;-1.192;2023-03-14T00:32:14;98152.25;;;8.90;59.65
46756;BME280;32506;52.826;-1.192;2023-03-14T00:34:39;98163.41;;;8.87;59.43
46756;BME280;32506;52.826;-1.192;2023-03-14T00:37:05;98161.28;;;8.84;59.31
46756;BME280;32506;52.826;-1.192;2023-03-14T00:39:31;98184.72;;;8.82;59.56
46756;BME280;32506;52.826;-1.192;2023-03-14T00:41:56;98189.75;;;8.79;59.54
46756;BME280;32506;52.826;-1.192;2023-03-14T00:44:22;98198.81;;;8.78;59.73
46756;BME280;32506;52.826;-1.192;2023-03-14T00:46:47;98202.78;;;8.75;59.50
46756;BME280;32506;52.826;-1.192;2023-03-14T00:49:13;98220.06;;;8.72;59.73
46756;BME280;32506;52.826;-1.192;2023-03-14T00:51:38;98232.03;;;8.70;59.53
46756;BME280;32506;52.826;-1.192;2023-03-14T00:54:04;98222.69;;;8.67;59.50
46756;BME280;32506;52.826;-1.192;2023-03-14T00:56:30;98231.22;;;8.64;59.55
46756;BME280;32506;52.826;-1.192;2023-03-14T00:58:56;98234.16;;;8.63;59.28
46756;BME280;32506;52.826;-1.192;2023-03-14T01:01:22;98241.84;;;8.59;59.61
46756;BME280;32506;52.826;-1.192;2023-03-14T01:03:51;98234.38;;;8.56;59.29
46756;BME280;32506;52.826;-1.192;2023-03-14T01:06:20;98253.25;;;8.54;59.54
46756;BME280;32506;52.826;-1.192;2023-03-14T01:08:46;98256.69;;;8.50;59.10
46756;BME280;32506;52.826;-1.192;2023-03-14T01:11:14;98265.19;;;8.47;59.07
46756;BME280;32506;52.826;-1.192;2023-03-14T01:13:42;98281.66;;;8.44;59.28
46756;BME280;32506;52.826;-1.192;2023-03-14T01:16:09;98286.66;;;8.40;59.33
46756;BME280;32506;52.826;-1.192;2023-03-14T01:18:35;98294.13;;;8.38;59.26
46756;BME280;32506;52.826;-1.192;2023-03-14T01:21:02;98281.56;;;8.33;59.24
46756;BME280;32506;52.826;-1.192;2023-03-14T01:23:27;98287.41;;;8.30;58.99
46756;BME280;32506;52.826;-1.192;2023-03-14T01:25:53;98299.34;;;8.28;59.08
46756;BME280;32506;52.826;-1.192;2023-03-14T01:28:18;98299.88;;;8.25;58.83
46756;BME280;32506;52.826;-1.192;2023-03-14T01:30:44;98300.34;;;8.21;58.77
46756;BME280;32506;52.826;-1.192;2023-03-14T01:33:09;98314.16;;;8.18;59.42
46756;BME280;32506;52.826;-1.192;2023-03-14T01:35:36;98322.09;;;8.13;58.86
46756;BME280;32506;52.826;-1.192;2023-03-14T01:38:01;98324.22;;;8.11;59.24
46756;BME280;32506;52.826;-1.192;2023-03-14T01:40:27;98339.09;;;8.07;58.98
46756;BME280;32506;52.826;-1.192;2023-03-14T01:42:57;98345.72;;;8.04;58.71
46756;BME280;32506;52.826;-1.192;2023-03-14T01:48:28;98365.56;;;7.97;58.79
46756;BME280;32506;52.826;-1.192;2023-03-14T01:50:56;98362.59;;;7.93;59.23
46756;BME280;32506;52.826;-1.192;2023-03-14T01:53:24;98368.41;;;7.90;58.96
46756;BME280;32506;52.826;-1.192;2023-03-14T01:55:52;98370.50;;;7.88;58.80
46756;BME280;32506;52.826;-1.192;2023-03-14T01:58:18;98378.44;;;7.83;59.18
46756;BME280;32506;52.826;-1.192;2023-03-14T02:00:45;98377.09;;;7.80;58.64
46756;BME280;32506;52.826;-1.192;2023-03-14T02:03:16;98383.72;;;7.78;59.02
46756;BME280;32506;52.826;-1.192;2023-03-14T02:05:42;98389.50;;;7.75;59.09
46756;BME280;32506;52.826;-1.192;2023-03-14T02:08:15;98394.53;;;7.71;59.18
46756;BME280;32506;52.826;-1.192;2023-03-14T02:10:45;98395.00;;;7.68;58.84
46756;BME280;32506;52.826;-1.192;2023-03-14T02:13:12;98397.38;;;7.64;58.82
46756;BME280;32506;52.826;-1.192;2023-03-14T02:15:39;98404.00;;;7.62;58.96
46756;BME280;32506;52.826;-1.192;2023-03-14T02:18:05;98412.44;;;7.59;58.52
46756;BME280;32506;52.826;-1.192;2023-03-14T02:23:00;98416.09;;;7.52;59.15
46756;BME280;32506;52.826;-1.192;2023-03-14T02:27:54;98435.44;;;7.48;58.86
46756;BME280;32506;52.826;-1.192;2023-03-14T02:30:22;98436.97;;;7.44;58.82
46756;BME280;32506;52.826;-1.192;2023-03-14T02:33:01;98449.72;;;7.42;59.25
46756;BME280;32506;52.826;-1.192;2023-03-14T02:35:32;98455.50;;;7.38;58.73
46756;BME280;32506;52.826;-1.192;2023-03-14T02:38:06;98465.56;;;7.36;58.74
46756;BME280;32506;52.826;-1.192;2023-03-14T02:40:35;98467.91;;;7.33;59.34
46756;BME280;32506;52.826;-1.192;2023-03-14T02:43:01;98473.72;;;7.30;59.07
46756;BME280;32506;52.826;-1.192;2023-03-14T02:45:45;98482.72;;;7.29;59.33
46756;BME280;32506;52.826;-1.192;2023-03-14T02:49:26;98485.06;;;7.25;58.99
46756;BME280;32506;52.826;-1.192;2023-03-14T02:51:21;98496.41;;;7.20;59.09
46756;BME280;32506;52.826;-1.192;2023-03-14T02:53:47;98507.28;;;7.19;58.82
46756;BME280;32506;52.826;-1.192;2023-03-14T02:56:12;98512.28;;;7.15;58.80
46756;BME280;32506;52.826;-1.192;2023-03-14T02:58:38;98519.94;;;7.12;59.11
46756;BME280;32506;52.826;-1.192;2023-03-14T03:01:04;98526.28;;;7.11;59.32
46756;BME280;32506;52.826;-1.192;2023-03-14T03:03:30;98538.19;;;7.08;58.85
46756;BME280;32506;52.826;-1.192;2023-03-14T03:05:56;98540.28;;;7.06;59.44
46756;BME280;32506;52.826;-1.192;2023-03-14T03:08:23;98546.88;;;7.03;58.94
46756;BME280;32506;52.826;-1.192;2023-03-14T03:10:50;98554.28;;;7.01;59.12
46756;BME280;32506;52.826;-1.192;2023-03-14T03:13:15;98561.13;;;6.97;59.06
46756;BME280;32506;52.826;-1.192;2023-03-14T03:15:42;98572.78;;;6.96;59.45
46756;BME280;32506;52.826;-1.192;2023-03-14T03:18:08;98574.84;;;6.94;59.14
46756;BME280;32506;52.826;-1.192;2023-03-14T03:20:33;98578.00;;;6.91;59.47
46756;BME280;32506;52.826;-1.192;2023-03-14T03:22:59;98596.81;;;6.89;59.15
46756;BME280;32506;52.826;-1.192;2023-03-14T03:25:25;98592.78;;;6.87;59.16
46756;BME280;32506;52.826;-1.192;2023-03-14T03:27:51;98598.59;;;6.84;59.07
46756;BME280;32506;52.826;-1.192;2023-03-14T03:30:17;98603.31;;;6.82;59.26
46756;BME280;32506;52.826;-1.192;2023-03-14T03:32:42;98606.22;;;6.80;59.47
46756;BME280;32506;52.826;-1.192;2023-03-14T03:35:08;98608.31;;;6.78;59.37
46756;BME280;32506;52.826;-1.192;2023-03-14T03:37:34;98610.38;;;6.76;59.01
46756;BME280;32506;52.826;-1.192;2023-03-14T03:40:00;98621.47;;;6.73;59.23
46756;BME280;32506;52.826;-1.192;2023-03-14T03:42:28;98632.56;;;6.70;59.29
46756;BME280;32506;52.826;-1.192;2023-03-14T03:44:54;98634.41;;;6.69;59.16
46756;BME280;32506;52.826;-1.192;2023-03-14T03:47:19;98644.47;;;6.67;59.59
46756;BME280;32506;52.826;-1.192;2023-03-14T03:49:45;98646.53;;;6.65;59.61
46756;BME280;32506;52.826;-1.192;2023-03-14T03:52:10;98661.88;;;6.63;59.28
46756;BME280;32506;52.826;-1.192;2023-03-14T03:54:36;98668.50;;;6.61;59.03
46756;BME280;32506;52.826;-1.192;2023-03-14T03:57:01;98671.59;;;6.58;59.43
46756;BME280;32506;52.826;-1.192;2023-03-14T03:59:27;98680.59;;;6.57;59.35
46756;BME280;32506;52.826;-1.192;2023-03-14T04:01:52;98687.19;;;6.54;59.03
46756;BME280;32506;52.826;-1.192;2023-03-14T04:04:18;98694.56;;;6.52;59.02
46756;BME280;32506;52.826;-1.192;2023-03-14T04:06:43;98710.13;;;6.48;59.13
46756;BME280;32506;52.826;-1.192;2023-03-14T04:09:10;98723.66;;;6.47;59.29
46756;BME280;32506;52.826;-1.192;2023-03-14T04:11:36;98728.41;;;6.45;58.80
46756;BME280;32506;52.826;-1.192;2023-03-14T04:14:02;98745.59;;;6.42;58.71
46756;BME280;32506;52.826;-1.192;2023-03-14T04:16:27;98742.34;;;6.40;58.78
46756;BME280;32506;52.826;-1.192;2023-03-14T04:18:53;98753.41;;;6.37;59.37
46756;BME280;32506;52.826;-1.192;2023-03-14T04:21:19;98764.28;;;6.35;59.30
46756;BME280;32506;52.826;-1.192;2023-03-14T04:23:44;98764.50;;;6.34;59.47
46756;BME280;32506;52.826;-1.192;2023-03-14T04:26:10;98768.41;;;6.31;59.24
46756;BME280;32506;52.826;-1.192;2023-03-14T04:28:36;98778.44;;;6.29;59.32
46756;BME280;32506;52.826;-1.192;2023-03-14T04:31:16;98784.22;;;6.26;59.24
46756;BME280;32506;52.826;-1.192;2023-03-14T04:33:42;98787.34;;;6.23;59.12
46756;BME280;32506;52.826;-1.192;2023-03-14T04:36:08;98805.06;;;6.22;59.14
46756;BME280;32506;52.826;-1.192;2023-03-14T04:38:34;98814.28;;;6.20;59.19
46756;BME280;32506;52.826;-1.192;2023-03-14T04:41:00;98823.50;;;6.17;59.11
46756;BME280;32506;52.826;-1.192;2023-03-14T04:43:26;98835.19;;;6.16;59.02
46756;BME280;32506;52.826;-1.192;2023-03-14T04:45:54;98848.06;;;6.13;59.53
46756;BME280;32506;52.826;-1.192;2023-03-14T04:48:20;98855.44;;;6.11;59.11
46756;BME280;32506;52.826;-1.192;2023-03-14T04:50:46;98863.63;;;6.09;59.31
46756;BME280;32506;52.826;-1.192;2023-03-14T04:53:13;98871.00;;;6.07;59.25
46756;BME280;32506;52.826;-1.192;2023-03-14T04:55:38;98881.81;;;6.05;59.39
46756;BME280;32506;52.826;-1.192;2023-03-14T04:58:04;98880.47;;;6.03;59.31
46756;BME280;32506;52.826;-1.192;2023-03-14T05:00:30;98892.09;;;6.02;59.19
46756;BME280;32506;52.826;-1.192;2023-03-14T05:02:55;98890.69;;;5.99;59.58
46756;BME280;32506;52.826;-1.192;2023-03-14T05:05:21;98896.41;;;5.96;59.22
46756;BME280;32506;52.826;-1.192;2023-03-14T05:07:46;98917.03;;;5.94;59.88
46756;BME280;32506;52.826;-1.192;2023-03-14T05:10:12;98925.22;;;5.93;59.33
46756;BME280;32506;52.826;-1.192;2023-03-14T05:12:37;98933.63;;;5.90;59.21
46756;BME280;32506;52.826;-1.192;2023-03-14T05:15:03;98947.31;;;5.86;59.58
46756;BME280;32506;52.826;-1.192;2023-03-14T05:17:30;98950.97;;;5.85;59.43
46756;BME280;32506;52.826;-1.192;2023-03-14T05:19:57;98958.59;;;5.82;59.56
46756;BME280;32506;52.826;-1.192;2023-03-14T05:22:22;98962.50;;;5.79;59.60
46756;BME280;32506;52.826;-1.192;2023-03-14T05:24:48;98969.84;;;5.77;59.61
46756;BME280;32506;52.826;-1.192;2023-03-14T05:27:13;98974.56;;;5.75;59.53
46756;BME280;32506;52.826;-1.192;2023-03-14T05:29:39;98979.28;;;5.73;59.66
46756;BME280;32506;52.826;-1.192;2023-03-14T05:32:04;98995.63;;;5.70;59.02
46756;BME280;32506;52.826;-1.192;2023-03-14T05:34:30;98994.22;;;5.67;59.12
46756;BME280;32506;52.826;-1.192;2023-03-14T05:36:55;99004.44;;;5.64;59.60
46756;BME280;32506;52.826;-1.192;2023-03-14T05:39:22;99015.25;;;5.62;59.33
46756;BME280;32506;52.826;-1.192;2023-03-14T05:41:47;99022.63;;;5.60;59.48
46756;BME280;32506;52.826;-1.192;2023-03-14T05:44:13;99038.97;;;5.57;59.78
46756;BME280;32506;52.826;-1.192;2023-03-14T05:46:38;99046.34;;;5.55;59.19
46756;BME280;32506;52.826;-1.192;2023-03-14T05:49:04;99045.94;;;5.51;59.52
46756;BME280;32506;52.826;-1.192;2023-03-14T05:51:29;99062.88;;;5.50;59.60
46756;BME280;32506;52.826;-1.192;2023-03-14T05:53:54;99065.97;;;5.47;59.49
46756;BME280;32506;52.826;-1.192;2023-03-14T05:56:20;99089.22;;;5.45;59.53
46756;BME280;32506;52.826;-1.192;2023-03-14T05:58:45;99093.13;;;5.43;59.67
46756;BME280;32506;52.826;-1.192;2023-03-14T06:01:11;99109.44;;;5.40;59.47
46756;BME280;32506;52.826;-1.192;2023-03-14T06:03:36;99114.16;;;5.37;59.42
46756;BME280;32506;52.826;-1.192;2023-03-14T06:06:02;99124.13;;;5.35;59.84
46756;BME280;32506;52.826;-1.192;2023-03-14T06:08:27;99124.56;;;5.32;59.25
46756;BME280;32506;52.826;-1.192;2023-03-14T06:10:53;99134.56;;;5.30;59.60
46756;BME280;32506;52.826;-1.192;2023-03-14T06:13:19;99148.22;;;5.27;59.42
46756;BME280;32506;52.826;-1.192;2023-03-14T06:15:45;99148.44;;;5.26;59.57
46756;BME280;32506;52.826;-1.192;2023-03-14T06:18:11;99166.59;;;5.22;59.59
46756;BME280;32506;52.826;-1.192;2023-03-14T06:20:37;99166.81;;;5.20;59.44
46756;BME280;32506;52.826;-1.192;2023-03-14T06:23:07;99184.78;;;5.18;59.61
46756;BME280;32506;52.826;-1.192;2023-03-14T06:25:33;99192.31;;;5.15;59.59
46756;BME280;32506;52.826;-1.192;2023-03-14T06:27:58;99206.56;;;5.14;59.54
46756;BME280;32506;52.826;-1.192;2023-03-14T06:30:24;99208.63;;;5.12;59.52
46756;BME280;32506;52.826;-1.192;2023-03-14T06:32:50;99228.41;;;5.09;59.68
46756;BME280;32506;52.826;-1.192;2023-03-14T06:35:15;99239.22;;;5.08;59.44
46756;BME280;32506;52.826;-1.192;2023-03-14T06:37:41;99247.56;;;5.04;59.73
46756;BME280;32506;52.826;-1.192;2023-03-14T06:40:08;99253.06;;;5.03;59.25
46756;BME280;32506;52.826;-1.192;2023-03-14T06:42:34;99259.59;;;5.00;59.58
46756;BME280;32506;52.826;-1.192;2023-03-14T06:44:59;99261.66;;;4.98;59.57
46756;BME280;32506;52.826;-1.192;2023-03-14T06:47:24;99276.91;;;4.96;59.77
46756;BME280;32506;52.826;-1.192;2023-03-14T06:49:50;99294.66;;;4.96;59.67
46756;BME280;32506;52.826;-1.192;2023-03-14T06:52:15;99295.03;;;4.93;59.56
46756;BME280;32506;52.826;-1.192;2023-03-14T06:54:41;99299.75;;;4.91;59.63
46756;BME280;32506;52.826;-1.192;2023-03-14T06:57:06;99310.56;;;4.89;59.68
46756;BME280;32506;52.826;-1.192;2023-03-14T06:59:32;99322.97;;;4.88;59.41
46756;BME280;32506;52.826;-1.192;2023-03-14T07:01:57;99325.00;;;4.86;59.89
46756;BME280;32506;52.826;-1.192;2023-03-14T07:04:23;99333.16;;;4.85;59.70
46756;BME280;32506;52.826;-1.192;2023-03-14T07:06:48;99338.63;;;4.83;59.77
46756;BME280;32506;52.826;-1.192;2023-03-14T07:09:15;99354.72;;;4.82;59.58
46756;BME280;32506;52.826;-1.192;2023-03-14T07:11:42;99353.13;;;4.81;60.20
46756;BME280;32506;52.826;-1.192;2023-03-14T07:14:08;99354.34;;;4.78;60.01
46756;BME280;32506;52.826;-1.192;2023-03-14T07:16:33;99358.00;;;4.77;59.66
46756;BME280;32506;52.826;-1.192;2023-03-14T07:19:00;99366.97;;;4.76;60.23
46756;BME280;32506;52.826;-1.192;2023-03-14T07:21:26;99385.69;;;4.75;60.44
46756;BME280;32506;52.826;-1.192;2023-03-14T07:23:51;99394.66;;;4.74;60.18
46756;BME280;32506;52.826;-1.192;2023-03-14T07:26:17;99402.81;;;4.72;60.31
46756;BME280;32506;52.826;-1.192;2023-03-14T07:28:42;99403.81;;;4.71;59.89
46756;BME280;32506;52.826;-1.192;2023-03-14T07:31:08;99417.03;;;4.71;60.13
46756;BME280;32506;52.826;-1.192;2023-03-14T07:33:33;99422.56;;;4.69;60.07
46756;BME280;32506;52.826;-1.192;2023-03-14T07:35:59;99433.34;;;4.68;60.37
46756;BME280;32506;52.826;-1.192;2023-03-14T07:38:25;99440.47;;;4.67;59.95
46756;BME280;32506;52.826;-1.192;2023-03-14T07:40:50;99454.72;;;4.66;59.97
46756;BME280;32506;52.826;-1.192;2023-03-14T07:43:22;99464.47;;;4.66;60.38
46756;BME280;32506;52.826;-1.192;2023-03-14T07:45:48;99462.88;;;4.65;60.45
46756;BME280;32506;52.826;-1.192;2023-03-14T07:48:13;99477.13;;;4.64;60.39
46756;BME280;32506;52.826;-1.192;2023-03-14T07:50:39;99494.63;;;4.65;60.08
46756;BME280;32506;52.826;-1.192;2023-03-14T07:53:04;99493.78;;;4.64;60.46
46756;BME280;32506;52.826;-1.192;2023-03-14T07:55:29;99496.66;;;4.63;60.39
46756;BME280;32506;52.826;-1.192;2023-03-14T07:57:55;99500.13;;;4.63;60.31
46756;BME280;32506;52.826;-1.192;2023-03-14T08:00:21;99504.59;;;4.63;60.39
46756;BME280;32506;52.826;-1.192;2023-03-14T08:02:46;99517.81;;;4.63;60.00
46756;BME280;32506;52.826;-1.192;2023-03-14T08:05:12;99523.94;;;4.63;60.32
46756;BME280;32506;52.826;-1.192;2023-03-14T08:07:37;99530.03;;;4.64;59.89
46756;BME280;32506;52.826;-1.192;2023-03-14T08:10:03;99529.25;;;4.63;59.93
46756;BME280;32506;52.826;-1.192;2023-03-14T08:12:29;99532.69;;;4.64;59.71
46756;BME280;32506;52.826;-1.192;2023-03-14T08:14:54;99538.59;;;4.66;59.72
46756;BME280;32506;52.826;-1.192;2023-03-14T08:17:20;99542.06;;;4.66;60.44
46756;BME280;32506;52.826;-1.192;2023-03-14T08:19:45;99546.34;;;4.67;60.18
46756;BME280;32506;52.826;-1.192;2023-03-14T08:22:11;99554.91;;;4.69;60.27
46756;BME280;32506;52.826;-1.192;2023-03-14T08:24:36;99558.97;;;4.72;60.64
46756;BME280;32506;52.826;-1.192;2023-03-14T08:27:02;99557.75;;;4.75;61.24
46756;BME280;32506;52.826;-1.192;2023-03-14T08:29:27;99580.97;;;4.79;61.19
46756;BME280;32506;52.826;-1.192;2023-03-14T08:31:52;99587.72;;;4.82;62.03
46756;BME280;32506;52.826;-1.192;2023-03-14T08:34:20;99594.06;;;4.87;61.99
46756;BME280;32506;52.826;-1.192;2023-03-14T08:36:45;99601.41;;;4.92;62.79
46756;BME280;32506;52.826;-1.192;2023-03-14T08:39:11;99614.66;;;4.99;63.04
46756;BME280;32506;52.826;-1.192;2023-03-14T08:41:36;99614.66;;;5.06;63.66
46756;BME280;32506;52.826;-1.192;2023-03-14T08:44:06;99624.28;;;5.13;63.54
46756;BME280;32506;52.826;-1.192;2023-03-14T08:46:32;99636.69;;;5.19;64.29
46756;BME280;32506;52.826;-1.192;2023-03-14T08:48:57;99643.44;;;5.29;64.58
46756;BME280;32506;52.826;-1.192;2023-03-14T08:51:23;99649.38;;;5.37;65.16
46756;BME280;32506;52.826;-1.192;2023-03-14T08:53:48;99655.28;;;5.46;65.12
46756;BME280;32506;52.826;-1.192;2023-03-14T08:56:14;99666.31;;;5.57;65.18
46756;BME280;32506;52.826;-1.192;2023-03-14T08:58:39;99673.66;;;5.68;65.94
46756;BME280;32506;52.826;-1.192;2023-03-14T09:01:08;99676.94;;;5.77;65.95
46756;BME280;32506;52.826;-1.192;2023-03-14T09:03:34;99679.81;;;5.88;66.70
46756;BME280;32506;52.826;-1.192;2023-03-14T09:06:04;99688.00;;;6.00;66.94
46756;BME280;32506;52.826;-1.192;2023-03-14T09:08:30;99699.63;;;6.13;66.77
46756;BME280;32506;52.826;-1.192;2023-03-14T09:10:56;99708.59;;;6.25;66.91
46756;BME280;32506;52.826;-1.192;2023-03-14T09:13:22;99702.25;;;6.40;67.43
46756;BME280;32506;52.826;-1.192;2023-03-14T09:15:55;99713.66;;;6.53;67.54
46756;BME280;32506;52.826;-1.192;2023-03-14T09:18:23;99717.94;;;6.68;67.56
46756;BME280;32506;52.826;-1.192;2023-03-14T09:20:49;99720.53;;;6.81;67.97
46756;BME280;32506;52.826;-1.192;2023-03-14T09:23:15;99740.53;;;6.97;68.26
46756;BME280;32506;52.826;-1.192;2023-03-14T09:25:41;99742.91;;;7.12;68.30
46756;BME280;32506;52.826;-1.192;2023-03-14T09:28:06;99744.88;;;7.30;68.21
46756;BME280;32506;52.826;-1.192;2023-03-14T09:30:32;99742.78;;;7.46;68.60
46756;BME280;32506;52.826;-1.192;2023-03-14T09:32:58;99757.78;;;7.65;68.41
46756;BME280;32506;52.826;-1.192;2023-03-14T09:35:24;99758.31;;;7.81;68.34
46756;BME280;32506;52.826;-1.192;2023-03-14T09:37:50;99782.56;;;7.98;68.49
46756;BME280;32506;52.826;-1.192;2023-03-14T09:40:17;99782.25;;;8.13;68.83
46756;BME280;32506;52.826;-1.192;2023-03-14T09:42:43;99780.91;;;8.29;68.05
46756;BME280;32506;52.826;-1.192;2023-03-14T09:48:21;99790.69;;;8.60;67.94
46756;BME280;32506;52.826;-1.192;2023-03-14T09:50:52;99801.00;;;8.75;67.93
46756;BME280;32506;52.826;-1.192;2023-03-14T09:53:22;99800.88;;;8.88;68.11
46756;BME280;32506;52.826;-1.192;2023-03-14T09:55:50;99796.44;;;9.01;67.64
46756;BME280;32506;52.826;-1.192;2023-03-14T09:58:22;99811.25;;;9.15;67.81
46756;BME280;32506;52.826;-1.192;2023-03-14T10:00:54;99814.59;;;9.29;67.88
46756;BME280;32506;52.826;-1.192;2023-03-14T10:03:34;99819.75;;;9.43;67.29
46756;BME280;32506;52.826;-1.192;2023-03-14T10:06:00;99831.56;;;9.53;67.29
46756;BME280;32506;52.826;-1.192;2023-03-14T10:08:26;99836.13;;;9.65;67.13
46756;BME280;32506;52.826;-1.192;2023-03-14T10:10:52;99839.09;;;9.75;66.97
46756;BME280;32506;52.826;-1.192;2023-03-14T10:13:24;99851.41;;;9.88;66.98
46756;BME280;32506;52.826;-1.192;2023-03-14T10:15:52;99862.16;;;10.00;66.74
46756;BME280;32506;52.826;-1.192;2023-03-14T10:18:18;99860.19;;;10.07;66.64
46756;BME280;32506;52.826;-1.192;2023-03-14T10:20:46;99859.44;;;10.18;66.76
46756;BME280;32506;52.826;-1.192;2023-03-14T10:25:40;99871.59;;;10.45;66.99
46756;BME280;32506;52.826;-1.192;2023-03-14T10:28:23;99885.91;;;10.62;67.03
46756;BME280;32506;52.826;-1.192;2023-03-14T10:30:49;99881.97;;;10.77;67.15
46756;BME280;32506;52.826;-1.192;2023-03-14T10:35:44;99894.78;;;11.10;67.36
46756;BME280;32506;52.826;-1.192;2023-03-14T10:38:17;99905.97;;;11.31;67.61
46756;BME280;32506;52.826;-1.192;2023-03-14T10:40:50;99905.78;;;11.49;67.45
46756;BME280;32506;52.826;-1.192;2023-03-14T10:43:27;99898.44;;;11.68;67.52
46756;BME280;32506;52.826;-1.192;2023-03-14T10:54:23;99926.00;;;12.50;66.78
46756;BME280;32506;52.826;-1.192;2023-03-14T10:57:04;99933.00;;;12.68;66.14
46756;BME280;32506;52.826;-1.192;2023-03-14T10:59:36;99931.38;;;12.84;66.11
46756;BME280;32506;52.826;-1.192;2023-03-14T11:08:02;99930.94;;;13.43;65.57
46756;BME280;32506;52.826;-1.192;2023-03-14T11:10:34;99948.06;;;13.59;65.35
46756;BME280;32506;52.826;-1.192;2023-03-14T11:13:26;99945.16;;;13.83;65.07
46756;BME280;32506;52.826;-1.192;2023-03-14T11:24:20;99950.22;;;14.56;63.68
46756;BME280;32506;52.826;-1.192;2023-03-14T11:27:44;99952.00;;;14.73;63.96
46756;BME280;32506;52.826;-1.192;2023-03-14T11:30:05;99954.31;;;14.91;63.52
46756;BME280;32506;52.826;-1.192;2023-03-14T11:35:30;99964.81;;;15.25;62.94
46756;BME280;32506;52.826;-1.192;2023-03-14T11:38:24;99968.38;;;15.36;62.00
46756;BME280;32506;52.826;-1.192;2023-03-14T11:40:54;99960.34;;;15.47;61.52
46756;BME280;32506;52.826;-1.192;2023-03-14T11:43:39;99973.09;;;15.56;61.47
46756;BME280;32506;52.826;-1.192;2023-03-14T11:46:36;99975.78;;;15.61;60.75
46756;BME280;32506;52.826;-1.192;2023-03-14T11:49:17;99990.91;;;15.68;59.88
46756;BME280;32506;52.826;-1.192;2023-03-14T11:51:50;99996.59;;;15.71;59.55
46756;BME280;32506;52.826;-1.192;2023-03-14T11:54:39;99994.81;;;15.82;59.36
46756;BME280;32506;52.826;-1.192;2023-03-14T11:57:14;99994.84;;;15.87;59.30
46756;BME280;32506;52.826;-1.192;2023-03-14T12:04:55;99997.84;;;16.01;58.40
46756;BME280;32506;52.826;-1.192;2023-03-14T12:10:29;99976.88;;;16.14;58.35
46756;BME280;32506;52.826;-1.192;2023-03-14T12:12:56;99986.59;;;16.20;57.56
46756;BME280;32506;52.826;-1.192;2023-03-14T12:15:23;99999.00;;;16.26;57.83
46756;BME280;32506;52.826;-1.192;2023-03-14T12:17:54;99994.19;;;16.33;57.42
46756;BME280;32506;52.826;-1.192;2023-03-14T12:20:25;99994.19;;;16.43;57.39
46756;BME280;32506;52.826;-1.192;2023-03-14T12:22:54;99986.13;;;16.54;57.16
46756;BME280;32506;52.826;-1.192;2023-03-14T12:30:29;99990.72;;;16.64;56.75
46756;BME280;32506;52.826;-1.192;2023-03-14T12:35:44;99987.50;;;16.56;55.76
46756;BME280;32506;52.826;-1.192;2023-03-14T12:43:51;100017.09;;;16.31;55.40
46756;BME280;32506;52.826;-1.192;2023-03-14T12:48:47;100029.69;;;16.09;52.71
46756;BME280;32506;52.826;-1.192;2023-03-14T12:51:16;100034.75;;;15.96;50.02
46756;BME280;32506;52.826;-1.192;2023-03-14T12:56:36;100040.47;;;15.67;48.30
46756;BME280;32506;52.826;-1.192;2023-03-14T13:04:36;100069.72;;;15.15;46.91
46756;BME280;32506;52.826;-1.192;2023-03-14T13:07:15;100076.25;;;14.97;46.94
46756;BME280;32506;52.826;-1.192;2023-03-14T13:09:59;100086.31;;;14.80;45.64
46756;BME280;32506;52.826;-1.192;2023-03-14T13:12:28;100090.13;;;14.62;45.69
46756;BME280;32506;52.826;-1.192;2023-03-14T13:14:59;100087.75;;;14.43;45.65
46756;BME280;32506;52.826;-1.192;2023-03-14T13:17:31;100077.03;;;14.26;46.13
46756;BME280;32506;52.826;-1.192;2023-03-14T13:20:00;100079.81;;;14.09;46.48
46756;BME280;32506;52.826;-1.192;2023-03-14T13:22:30;100066.97;;;13.94;47.04
46756;BME280;32506;52.826;-1.192;2023-03-14T13:25:09;100068.38;;;13.80;47.60
46756;BME280;32506;52.826;-1.192;2023-03-14T13:27:35;100074.88;;;13.67;47.95
46756;BME280;32506;52.826;-1.192;2023-03-14T13:30:24;100074.50;;;13.58;49.19
46756;BME280;32506;52.826;-1.192;2023-03-14T13:32:51;100070.34;;;13.50;50.73
46756;BME280;32506;52.826;-1.192;2023-03-14T13:35:27;100072.44;;;13.48;51.18
46756;BME280;32506;52.826;-1.192;2023-03-14T13:37:58;100064.19;;;13.50;52.03
46756;BME280;32506;52.826;-1.192;2023-03-14T13:40:29;100076.84;;;13.54;52.56
46756;BME280;32506;52.826;-1.192;2023-03-14T13:43:11;100075.31;;;13.58;53.05
46756;BME280;32506;52.826;-1.192;2023-03-14T13:46:05;100078.56;;;13.61;53.50
46756;BME280;32506;52.826;-1.192;2023-03-14T13:48:30;100080.44;;;13.60;53.54
46756;BME280;32506;52.826;-1.192;2023-03-14T13:51:07;100081.00;;;13.62;53.58
46756;BME280;32506;52.826;-1.192;2023-03-14T13:53:53;100081.56;;;13.64;53.61
46756;BME280;32506;52.826;-1.192;2023-03-14T13:56:20;100072.19;;;13.67;53.53
46756;BME280;32506;52.826;-1.192;2023-03-14T13:58:46;100068.28;;;13.74;53.95
46756;BME280;32506;52.826;-1.192;2023-03-14T14:01:32;100063.63;;;13.87;53.99
46756;BME280;32506;52.826;-1.192;2023-03-14T14:04:05;100059.22;;;13.98;54.02
46756;BME280;32506;52.826;-1.192;2023-03-14T14:06:38;100051.03;;;14.09;54.09
46756;BME280;32506;52.826;-1.192;2023-03-14T14:09:12;100045.22;;;14.18;53.99
46756;BME280;32506;52.826;-1.192;2023-03-14T14:14:31;100046.75;;;14.31;53.40
46756;BME280;32506;52.826;-1.192;2023-03-14T14:16:58;100055.34;;;14.33;53.62
46756;BME280;32506;52.826;-1.192;2023-03-14T14:19:27;100046.22;;;14.34;53.22